Denver, Colorado
Current Conditions -  °F | °C
As of 6:58 PM on Saturday 25 Oct 2014 (Local Time) from KBKF Reporting Station
Clear Clear  
Wind Chill: 61°   Ceiling: Unl
Heat Index: 61°   Visibility: 10mi
Dew Point: 24°   Wind: 8mph
Humidity: 24%   Direction: 110°ESE
Pressure: 30.06"   Gusts: NA
Location:  39.74°N, 104.99°W
Report Text: KBKF 260058Z 11007KT 10SM CLR 16/M04 A3006 RMK AO2A SLP133 T01621044
Loading
Personal Weather Stations






























Interactive Weather Map
Tropical Storm Tracking
New forecast layout! Learn more

10-Day Weather Forecast

Advertisements
Track Severe Weather on mobile